sensor_id;sensor_type;location;lat;lon;timestamp;P1;durP1;ratioP1;P2;durP2;ratioP2
2129;SDS011;1071;52.544;13.374;2023-07-13T00:00:56;3.90;;;3.60;;
2129;SDS011;1071;52.544;13.374;2023-07-13T00:03:24;6.83;;;5.40;;
2129;SDS011;1071;52.544;13.374;2023-07-13T00:05:56;7.40;;;6.80;;
2129;SDS011;1071;52.544;13.374;2023-07-13T00:08:25;5.90;;;5.30;;
2129;SDS011;1071;52.544;13.374;2023-07-13T00:10:55;4.50;;;4.10;;
2129;SDS011;1071;52.544;13.374;2023-07-13T00:13:22;4.07;;;3.67;;
2129;SDS011;1071;52.544;13.374;2023-07-13T00:15:49;3.80;;;3.30;;
2129;SDS011;1071;52.544;13.374;2023-07-13T00:18:16;3.90;;;3.60;;
2129;SDS011;1071;52.544;13.374;2023-07-13T00:20:47;3.67;;;3.37;;
2129;SDS011;1071;52.544;13.374;2023-07-13T00:23:17;3.90;;;3.10;;
2129;SDS011;1071;52.544;13.374;2023-07-13T00:25:45;4.13;;;3.00;;
2129;SDS011;1071;52.544;13.374;2023-07-13T00:28:12;3.77;;;2.97;;
2129;SDS011;1071;52.544;13.374;2023-07-13T00:30:39;7.10;;;3.60;;
2129;SDS011;1071;52.544;13.374;2023-07-13T00:33:07;7.40;;;4.30;;
2129;SDS011;1071;52.544;13.374;2023-07-13T00:35:34;5.90;;;4.10;;
2129;SDS011;1071;52.544;13.374;2023-07-13T00:38:01;4.60;;;4.10;;
2129;SDS011;1071;52.544;13.374;2023-07-13T00:40:28;4.53;;;3.53;;
2129;SDS011;1071;52.544;13.374;2023-07-13T00:42:58;7.00;;;4.57;;
2129;SDS011;1071;52.544;13.374;2023-07-13T00:48:33;5.87;;;4.53;;
2129;SDS011;1071;52.544;13.374;2023-07-13T00:51:02;5.60;;;4.40;;
2129;SDS011;1071;52.544;13.374;2023-07-13T00:53:30;5.53;;;4.80;;
2129;SDS011;1071;52.544;13.374;2023-07-13T00:55:59;6.13;;;5.10;;
2129;SDS011;1071;52.544;13.374;2023-07-13T00:58:28;4.53;;;4.10;;
2129;SDS011;1071;52.544;13.374;2023-07-13T01:00:55;4.27;;;3.87;;
2129;SDS011;1071;52.544;13.374;2023-07-13T01:03:22;4.53;;;3.70;;
2129;SDS011;1071;52.544;13.374;2023-07-13T01:05:50;5.53;;;4.70;;
2129;SDS011;1071;52.544;13.374;2023-07-13T01:08:19;3.80;;;3.27;;
2129;SDS011;1071;52.544;13.374;2023-07-13T01:10:52;4.90;;;3.80;;
2129;SDS011;1071;52.544;13.374;2023-07-13T01:13:21;4.80;;;3.40;;
2129;SDS011;1071;52.544;13.374;2023-07-13T01:15:50;2.90;;;2.70;;
2129;SDS011;1071;52.544;13.374;2023-07-13T01:18:19;6.93;;;3.57;;
2129;SDS011;1071;52.544;13.374;2023-07-13T01:20:52;3.10;;;2.80;;
2129;SDS011;1071;52.544;13.374;2023-07-13T01:23:21;4.60;;;3.27;;
2129;SDS011;1071;52.544;13.374;2023-07-13T01:25:49;5.20;;;3.70;;
2129;SDS011;1071;52.544;13.374;2023-07-13T01:28:16;3.80;;;3.50;;
2129;SDS011;1071;52.544;13.374;2023-07-13T01:30:45;3.30;;;3.10;;
2129;SDS011;1071;52.544;13.374;2023-07-13T01:33:13;3.33;;;3.10;;
2129;SDS011;1071;52.544;13.374;2023-07-13T01:35:42;3.63;;;3.03;;
2129;SDS011;1071;52.544;13.374;2023-07-13T01:38:12;3.50;;;3.20;;
2129;SDS011;1071;52.544;13.374;2023-07-13T01:40:41;2.97;;;2.77;;
2129;SDS011;1071;52.544;13.374;2023-07-13T01:43:08;4.87;;;4.37;;
2129;SDS011;1071;52.544;13.374;2023-07-13T01:45:36;4.43;;;4.00;;
2129;SDS011;1071;52.544;13.374;2023-07-13T01:48:03;6.70;;;4.30;;
2129;SDS011;1071;52.544;13.374;2023-07-13T01:50:31;4.70;;;4.30;;
2129;SDS011;1071;52.544;13.374;2023-07-13T01:52:59;6.40;;;4.27;;
2129;SDS011;1071;52.544;13.374;2023-07-13T01:55:28;4.83;;;4.20;;
2129;SDS011;1071;52.544;13.374;2023-07-13T01:57:55;4.33;;;3.87;;
2129;SDS011;1071;52.544;13.374;2023-07-13T02:00:23;3.50;;;3.20;;
2129;SDS011;1071;52.544;13.374;2023-07-13T02:02:50;3.57;;;3.27;;
2129;SDS011;1071;52.544;13.374;2023-07-13T02:05:18;4.00;;;3.60;;
2129;SDS011;1071;52.544;13.374;2023-07-13T02:07:45;3.03;;;2.83;;
2129;SDS011;1071;52.544;13.374;2023-07-13T02:10:15;3.10;;;2.83;;
2129;SDS011;1071;52.544;13.374;2023-07-13T02:12:44;3.53;;;3.23;;
2129;SDS011;1071;52.544;13.374;2023-07-13T02:15:10;3.33;;;3.13;;
2129;SDS011;1071;52.544;13.374;2023-07-13T02:17:38;4.00;;;3.70;;
2129;SDS011;1071;52.544;13.374;2023-07-13T02:20:07;4.77;;;3.37;;
2129;SDS011;1071;52.544;13.374;2023-07-13T02:22:35;4.80;;;3.63;;
2129;SDS011;1071;52.544;13.374;2023-07-13T02:25:02;3.33;;;3.03;;
2129;SDS011;1071;52.544;13.374;2023-07-13T02:27:29;4.57;;;3.70;;
2129;SDS011;1071;52.544;13.374;2023-07-13T02:29:58;3.97;;;3.40;;
2129;SDS011;1071;52.544;13.374;2023-07-13T02:32:26;3.77;;;3.33;;
2129;SDS011;1071;52.544;13.374;2023-07-13T02:34:53;3.93;;;3.63;;
2129;SDS011;1071;52.544;13.374;2023-07-13T02:37:20;4.23;;;3.83;;
2129;SDS011;1071;52.544;13.374;2023-07-13T02:39:48;4.07;;;3.50;;
2129;SDS011;1071;52.544;13.374;2023-07-13T02:42:15;5.50;;;3.63;;
2129;SDS011;1071;52.544;13.374;2023-07-13T02:44:42;4.90;;;3.97;;
2129;SDS011;1071;52.544;13.374;2023-07-13T02:47:10;5.13;;;4.03;;
2129;SDS011;1071;52.544;13.374;2023-07-13T02:49:38;9.27;;;4.77;;
2129;SDS011;1071;52.544;13.374;2023-07-13T02:52:05;4.60;;;4.20;;
2129;SDS011;1071;52.544;13.374;2023-07-13T02:54:36;3.70;;;3.40;;
2129;SDS011;1071;52.544;13.374;2023-07-13T02:57:03;4.23;;;3.83;;
2129;SDS011;1071;52.544;13.374;2023-07-13T02:59:30;8.13;;;4.90;;
2129;SDS011;1071;52.544;13.374;2023-07-13T03:01:58;3.73;;;3.33;;
2129;SDS011;1071;52.544;13.374;2023-07-13T03:04:28;3.97;;;3.37;;
2129;SDS011;1071;52.544;13.374;2023-07-13T03:06:55;5.10;;;3.50;;
2129;SDS011;1071;52.544;13.374;2023-07-13T03:09:23;3.43;;;3.13;;
2129;SDS011;1071;52.544;13.374;2023-07-13T03:11:52;3.20;;;2.93;;
2129;SDS011;1071;52.544;13.374;2023-07-13T03:14:20;3.37;;;2.83;;
2129;SDS011;1071;52.544;13.374;2023-07-13T03:16:47;4.60;;;3.50;;
2129;SDS011;1071;52.544;13.374;2023-07-13T03:19:15;4.70;;;3.20;;
2129;SDS011;1071;52.544;13.374;2023-07-13T03:21:43;4.00;;;3.57;;
2129;SDS011;1071;52.544;13.374;2023-07-13T03:24:10;3.93;;;3.60;;
2129;SDS011;1071;52.544;13.374;2023-07-13T03:26:37;3.83;;;3.10;;
2129;SDS011;1071;52.544;13.374;2023-07-13T03:29:05;4.03;;;3.73;;
2129;SDS011;1071;52.544;13.374;2023-07-13T03:31:33;5.23;;;3.83;;
2129;SDS011;1071;52.544;13.374;2023-07-13T03:34:01;8.23;;;5.00;;
2129;SDS011;1071;52.544;13.374;2023-07-13T03:36:29;4.80;;;4.20;;
2129;SDS011;1071;52.544;13.374;2023-07-13T03:39:00;4.60;;;4.20;;
2129;SDS011;1071;52.544;13.374;2023-07-13T03:41:29;4.70;;;4.10;;
2129;SDS011;1071;52.544;13.374;2023-07-13T03:43:56;4.13;;;3.73;;
2129;SDS011;1071;52.544;13.374;2023-07-13T03:46:23;4.47;;;4.10;;
2129;SDS011;1071;52.544;13.374;2023-07-13T03:48:51;3.90;;;3.57;;
2129;SDS011;1071;52.544;13.374;2023-07-13T03:51:18;4.53;;;3.63;;
2129;SDS011;1071;52.544;13.374;2023-07-13T03:53:46;5.23;;;3.57;;
2129;SDS011;1071;52.544;13.374;2023-07-13T03:56:16;3.73;;;3.27;;
2129;SDS011;1071;52.544;13.374;2023-07-13T03:58:45;3.50;;;3.20;;
2129;SDS011;1071;52.544;13.374;2023-07-13T04:01:13;6.13;;;3.63;;
2129;SDS011;1071;52.544;13.374;2023-07-13T04:03:41;3.20;;;2.80;;
2129;SDS011;1071;52.544;13.374;2023-07-13T04:06:12;3.87;;;3.47;;
2129;SDS011;1071;52.544;13.374;2023-07-13T04:08:45;4.00;;;3.13;;
2129;SDS011;1071;52.544;13.374;2023-07-13T04:11:16;5.53;;;3.20;;
2129;SDS011;1071;52.544;13.374;2023-07-13T04:13:44;4.13;;;3.73;;
2129;SDS011;1071;52.544;13.374;2023-07-13T04:16:11;4.33;;;2.73;;
2129;SDS011;1071;52.544;13.374;2023-07-13T04:18:39;3.87;;;3.17;;
2129;SDS011;1071;52.544;13.374;2023-07-13T04:21:06;4.30;;;3.80;;
2129;SDS011;1071;52.544;13.374;2023-07-13T04:23:34;4.20;;;3.70;;
2129;SDS011;1071;52.544;13.374;2023-07-13T04:26:01;8.10;;;4.40;;
2129;SDS011;1071;52.544;13.374;2023-07-13T04:28:30;3.70;;;3.40;;
2129;SDS011;1071;52.544;13.374;2023-07-13T04:30:58;3.87;;;3.30;;
2129;SDS011;1071;52.544;13.374;2023-07-13T04:33:25;3.63;;;3.37;;
2129;SDS011;1071;52.544;13.374;2023-07-13T04:35:54;7.10;;;4.50;;
2129;SDS011;1071;52.544;13.374;2023-07-13T04:38:23;3.63;;;3.33;;
2129;SDS011;1071;52.544;13.374;2023-07-13T04:40:52;6.43;;;4.10;;
2129;SDS011;1071;52.544;13.374;2023-07-13T04:43:20;4.43;;;3.27;;
2129;SDS011;1071;52.544;13.374;2023-07-13T04:45:49;3.53;;;3.10;;
2129;SDS011;1071;52.544;13.374;2023-07-13T04:48:16;3.70;;;3.40;;
2129;SDS011;1071;52.544;13.374;2023-07-13T04:50:43;3.83;;;3.53;;
2129;SDS011;1071;52.544;13.374;2023-07-13T04:53:11;3.60;;;3.27;;
2129;SDS011;1071;52.544;13.374;2023-07-13T04:55:38;3.20;;;2.90;;
2129;SDS011;1071;52.544;13.374;2023-07-13T04:58:06;5.93;;;4.00;;
2129;SDS011;1071;52.544;13.374;2023-07-13T05:00:33;4.07;;;3.77;;
2129;SDS011;1071;52.544;13.374;2023-07-13T05:03:02;4.40;;;4.10;;
2129;SDS011;1071;52.544;13.374;2023-07-13T05:05:35;3.33;;;3.07;;
2129;SDS011;1071;52.544;13.374;2023-07-13T05:08:02;3.23;;;2.93;;
2129;SDS011;1071;52.544;13.374;2023-07-13T05:10:29;3.57;;;3.27;;
2129;SDS011;1071;52.544;13.374;2023-07-13T05:12:57;7.00;;;3.40;;
2129;SDS011;1071;52.544;13.374;2023-07-13T05:15:24;5.57;;;2.97;;
2129;SDS011;1071;52.544;13.374;2023-07-13T05:17:51;3.83;;;3.40;;
2129;SDS011;1071;52.544;13.374;2023-07-13T05:20:19;5.33;;;3.20;;
2129;SDS011;1071;52.544;13.374;2023-07-13T05:22:46;3.67;;;3.37;;
2129;SDS011;1071;52.544;13.374;2023-07-13T05:25:13;5.03;;;3.10;;
2129;SDS011;1071;52.544;13.374;2023-07-13T05:27:40;8.67;;;3.73;;
2129;SDS011;1071;52.544;13.374;2023-07-13T05:30:07;5.63;;;3.40;;
2129;SDS011;1071;52.544;13.374;2023-07-13T05:32:37;7.77;;;4.03;;
2129;SDS011;1071;52.544;13.374;2023-07-13T05:35:04;3.87;;;3.50;;
2129;SDS011;1071;52.544;13.374;2023-07-13T05:37:33;3.50;;;2.77;;
2129;SDS011;1071;52.544;13.374;2023-07-13T05:40:01;4.27;;;2.73;;
2129;SDS011;1071;52.544;13.374;2023-07-13T05:42:31;4.23;;;3.20;;
2129;SDS011;1071;52.544;13.374;2023-07-13T05:44:58;4.70;;;3.40;;
2129;SDS011;1071;52.544;13.374;2023-07-13T05:47:25;3.70;;;2.97;;
2129;SDS011;1071;52.544;13.374;2023-07-13T05:49:52;3.97;;;2.80;;
2129;SDS011;1071;52.544;13.374;2023-07-13T05:52:19;3.57;;;3.27;;
2129;SDS011;1071;52.544;13.374;2023-07-13T05:54:47;3.53;;;3.23;;
2129;SDS011;1071;52.544;13.374;2023-07-13T05:57:14;3.23;;;3.03;;
2129;SDS011;1071;52.544;13.374;2023-07-13T05:59:42;4.97;;;3.70;;
2129;SDS011;1071;52.544;13.374;2023-07-13T06:02:09;5.63;;;2.90;;
2129;SDS011;1071;52.544;13.374;2023-07-13T06:04:37;4.60;;;4.20;;
2129;SDS011;1071;52.544;13.374;2023-07-13T06:07:04;6.70;;;6.10;;
2129;SDS011;1071;52.544;13.374;2023-07-13T06:09:31;4.73;;;4.33;;
2129;SDS011;1071;52.544;13.374;2023-07-13T06:11:59;4.33;;;4.03;;
2129;SDS011;1071;52.544;13.374;2023-07-13T06:14:28;4.23;;;3.83;;
2129;SDS011;1071;52.544;13.374;2023-07-13T06:16:55;4.27;;;3.83;;
2129;SDS011;1071;52.544;13.374;2023-07-13T06:19:22;2.77;;;2.27;;
2129;SDS011;1071;52.544;13.374;2023-07-13T06:21:49;4.50;;;3.33;;
2129;SDS011;1071;52.544;13.374;2023-07-13T06:24:16;2.77;;;2.23;;
2129;SDS011;1071;52.544;13.374;2023-07-13T06:26:47;3.90;;;2.63;;
2129;SDS011;1071;52.544;13.374;2023-07-13T06:29:16;3.70;;;2.90;;
2129;SDS011;1071;52.544;13.374;2023-07-13T06:31:43;3.67;;;2.60;;
2129;SDS011;1071;52.544;13.374;2023-07-13T06:34:09;3.87;;;2.50;;
2129;SDS011;1071;52.544;13.374;2023-07-13T06:36:36;5.80;;;2.40;;
2129;SDS011;1071;52.544;13.374;2023-07-13T06:39:07;3.47;;;3.17;;
2129;SDS011;1071;52.544;13.374;2023-07-13T06:41:36;3.87;;;3.50;;
2129;SDS011;1071;52.544;13.374;2023-07-13T06:44:04;6.30;;;3.60;;
2129;SDS011;1071;52.544;13.374;2023-07-13T06:46:33;4.17;;;3.20;;
2129;SDS011;1071;52.544;13.374;2023-07-13T06:49:00;5.10;;;4.60;;
2129;SDS011;1071;52.544;13.374;2023-07-13T06:51:27;6.30;;;5.53;;
2129;SDS011;1071;52.544;13.374;2023-07-13T06:53:54;6.03;;;3.97;;
2129;SDS011;1071;52.544;13.374;2023-07-13T06:56:21;6.90;;;6.20;;
2129;SDS011;1071;52.544;13.374;2023-07-13T06:58:48;3.57;;;3.27;;
2129;SDS011;1071;52.544;13.374;2023-07-13T07:01:15;3.60;;;2.80;;
2129;SDS011;1071;52.544;13.374;2023-07-13T07:03:43;6.87;;;6.27;;
2129;SDS011;1071;52.544;13.374;2023-07-13T07:06:12;4.50;;;4.10;;
2129;SDS011;1071;52.544;13.374;2023-07-13T07:08:42;4.33;;;4.00;;
2129;SDS011;1071;52.544;13.374;2023-07-13T07:11:11;4.63;;;3.83;;
2129;SDS011;1071;52.544;13.374;2023-07-13T07:13:39;3.43;;;3.03;;
2129;SDS011;1071;52.544;13.374;2023-07-13T07:16:06;3.07;;;2.27;;
2129;SDS011;1071;52.544;13.374;2023-07-13T07:18:33;2.97;;;2.47;;
2129;SDS011;1071;52.544;13.374;2023-07-13T07:21:02;4.10;;;3.63;;
2129;SDS011;1071;52.544;13.374;2023-07-13T07:23:29;2.93;;;2.60;;
2129;SDS011;1071;52.544;13.374;2023-07-13T07:25:56;2.43;;;1.80;;
2129;SDS011;1071;52.544;13.374;2023-07-13T07:28:23;2.37;;;2.03;;
2129;SDS011;1071;52.544;13.374;2023-07-13T07:30:53;2.20;;;1.70;;
2129;SDS011;1071;52.544;13.374;2023-07-13T07:33:21;3.00;;;2.40;;
2129;SDS011;1071;52.544;13.374;2023-07-13T07:35:49;2.73;;;2.53;;
2129;SDS011;1071;52.544;13.374;2023-07-13T07:38:17;3.77;;;2.47;;
2129;SDS011;1071;52.544;13.374;2023-07-13T07:40:44;1.90;;;1.77;;
2129;SDS011;1071;52.544;13.374;2023-07-13T07:43:12;1.67;;;1.47;;
2129;SDS011;1071;52.544;13.374;2023-07-13T07:45:39;3.87;;;3.57;;
2129;SDS011;1071;52.544;13.374;2023-07-13T07:48:07;4.43;;;3.93;;
2129;SDS011;1071;52.544;13.374;2023-07-13T07:50:34;8.67;;;3.93;;
2129;SDS011;1071;52.544;13.374;2023-07-13T07:53:02;4.27;;;3.57;;
2129;SDS011;1071;52.544;13.374;2023-07-13T07:55:33;5.47;;;5.00;;
2129;SDS011;1071;52.544;13.374;2023-07-13T07:58:01;4.83;;;4.43;;
2129;SDS011;1071;52.544;13.374;2023-07-13T08:00:28;4.63;;;3.00;;
2129;SDS011;1071;52.544;13.374;2023-07-13T08:02:56;3.40;;;2.83;;
2129;SDS011;1071;52.544;13.374;2023-07-13T08:05:24;2.57;;;2.33;;
2129;SDS011;1071;52.544;13.374;2023-07-13T08:07:52;3.00;;;2.50;;
2129;SDS011;1071;52.544;13.374;2023-07-13T08:10:19;2.30;;;2.10;;
2129;SDS011;1071;52.544;13.374;2023-07-13T08:12:47;3.20;;;2.90;;
2129;SDS011;1071;52.544;13.374;2023-07-13T08:15:15;3.53;;;3.23;;
2129;SDS011;1071;52.544;13.374;2023-07-13T08:17:43;1.87;;;1.57;;
2129;SDS011;1071;52.544;13.374;2023-07-13T08:20:10;2.83;;;2.17;;
2129;SDS011;1071;52.544;13.374;2023-07-13T08:22:37;2.43;;;2.20;;
2129;SDS011;1071;52.544;13.374;2023-07-13T08:25:04;1.80;;;1.70;;
2129;SDS011;1071;52.544;13.374;2023-07-13T08:27:32;3.53;;;1.80;;
2129;SDS011;1071;52.544;13.374;2023-07-13T08:30:00;3.20;;;2.10;;
2129;SDS011;1071;52.544;13.374;2023-07-13T08:32:28;3.13;;;2.90;;
2129;SDS011;1071;52.544;13.374;2023-07-13T08:34:58;3.40;;;2.67;;
2129;SDS011;1071;52.544;13.374;2023-07-13T08:37:26;2.40;;;2.30;;
2129;SDS011;1071;52.544;13.374;2023-07-13T08:39:53;2.30;;;2.10;;
2129;SDS011;1071;52.544;13.374;2023-07-13T08:42:22;3.40;;;2.07;;
2129;SDS011;1071;52.544;13.374;2023-07-13T08:45:02;7.00;;;2.80;;
2129;SDS011;1071;52.544;13.374;2023-07-13T08:47:40;4.70;;;4.20;;
2129;SDS011;1071;52.544;13.374;2023-07-13T08:50:19;3.17;;;2.97;;
2129;SDS011;1071;52.544;13.374;2023-07-13T08:52:51;4.07;;;2.47;;
2129;SDS011;1071;52.544;13.374;2023-07-13T08:55:20;3.63;;;2.00;;
2129;SDS011;1071;52.544;13.374;2023-07-13T08:57:53;3.00;;;1.97;;
2129;SDS011;1071;52.544;13.374;2023-07-13T09:00:31;2.90;;;1.50;;
2129;SDS011;1071;52.544;13.374;2023-07-13T09:03:08;2.50;;;2.10;;
2129;SDS011;1071;52.544;13.374;2023-07-13T09:05:45;4.07;;;1.90;;
2129;SDS011;1071;52.544;13.374;2023-07-13T09:08:31;3.03;;;1.80;;
2129;SDS011;1071;52.544;13.374;2023-07-13T09:11:07;1.90;;;1.37;;
2129;SDS011;1071;52.544;13.374;2023-07-13T09:13:46;3.77;;;1.90;;
2129;SDS011;1071;52.544;13.374;2023-07-13T09:16:22;3.17;;;2.10;;
2129;SDS011;1071;52.544;13.374;2023-07-13T09:18:51;1.73;;;1.53;;
2129;SDS011;1071;52.544;13.374;2023-07-13T09:21:23;1.70;;;1.60;;
2129;SDS011;1071;52.544;13.374;2023-07-13T09:23:53;2.93;;;1.77;;
2129;SDS011;1071;52.544;13.374;2023-07-13T09:26:23;3.00;;;1.93;;
2129;SDS011;1071;52.544;13.374;2023-07-13T09:28:56;4.77;;;2.23;;
2129;SDS011;1071;52.544;13.374;2023-07-13T09:31:38;4.00;;;1.70;;
2129;SDS011;1071;52.544;13.374;2023-07-13T09:34:09;2.23;;;1.70;;
2129;SDS011;1071;52.544;13.374;2023-07-13T09:36:38;1.70;;;1.50;;
2129;SDS011;1071;52.544;13.374;2023-07-13T09:39:08;2.07;;;1.87;;
2129;SDS011;1071;52.544;13.374;2023-07-13T09:41:41;3.43;;;1.57;;
2129;SDS011;1071;52.544;13.374;2023-07-13T09:44:15;2.23;;;1.90;;
2129;SDS011;1071;52.544;13.374;2023-07-13T09:46:46;2.67;;;2.47;;
2129;SDS011;1071;52.544;13.374;2023-07-13T09:49:23;3.00;;;2.80;;
2129;SDS011;1071;52.544;13.374;2023-07-13T09:51:57;3.00;;;2.67;;
2129;SDS011;1071;52.544;13.374;2023-07-13T09:54:26;4.50;;;3.03;;
2129;SDS011;1071;52.544;13.374;2023-07-13T09:56:58;5.60;;;3.17;;
2129;SDS011;1071;52.544;13.374;2023-07-13T09:59:28;2.60;;;2.40;;
2129;SDS011;1071;52.544;13.374;2023-07-13T10:01:58;2.90;;;2.70;;
2129;SDS011;1071;52.544;13.374;2023-07-13T10:04:28;3.07;;;2.70;;
2129;SDS011;1071;52.544;13.374;2023-07-13T10:07:04;3.23;;;2.60;;
2129;SDS011;1071;52.544;13.374;2023-07-13T10:09:32;3.70;;;2.77;;
2129;SDS011;1071;52.544;13.374;2023-07-13T10:12:00;2.70;;;2.50;;
2129;SDS011;1071;52.544;13.374;2023-07-13T10:14:29;4.40;;;2.20;;
2129;SDS011;1071;52.544;13.374;2023-07-13T10:17:00;2.70;;;2.50;;
2129;SDS011;1071;52.544;13.374;2023-07-13T10:19:31;3.63;;;2.70;;
2129;SDS011;1071;52.544;13.374;2023-07-13T10:22:01;4.00;;;3.40;;
2129;SDS011;1071;52.544;13.374;2023-07-13T10:24:36;3.83;;;3.13;;
2129;SDS011;1071;52.544;13.374;2023-07-13T10:27:12;3.17;;;2.87;;
2129;SDS011;1071;52.544;13.374;2023-07-13T10:29:45;2.90;;;2.70;;
2129;SDS011;1071;52.544;13.374;2023-07-13T10:32:16;3.00;;;2.70;;
2129;SDS011;1071;52.544;13.374;2023-07-13T10:34:48;3.10;;;2.80;;
2129;SDS011;1071;52.544;13.374;2023-07-13T10:37:18;4.90;;;3.73;;
2129;SDS011;1071;52.544;13.374;2023-07-13T10:39:49;3.73;;;3.30;;
2129;SDS011;1071;52.544;13.374;2023-07-13T10:42:23;3.57;;;3.27;;
2129;SDS011;1071;52.544;13.374;2023-07-13T10:44:54;3.50;;;2.90;;
2129;SDS011;1071;52.544;13.374;2023-07-13T10:47:22;3.13;;;2.93;;
2129;SDS011;1071;52.544;13.374;2023-07-13T10:49:52;5.40;;;3.03;;
2129;SDS011;1071;52.544;13.374;2023-07-13T10:55:32;3.00;;;2.80;;
2129;SDS011;1071;52.544;13.374;2023-07-13T10:58:01;3.07;;;2.60;;
2129;SDS011;1071;52.544;13.374;2023-07-13T11:00:30;4.53;;;2.87;;
2129;SDS011;1071;52.544;13.374;2023-07-13T11:03:03;4.03;;;3.63;;
2129;SDS011;1071;52.544;13.374;2023-07-13T11:05:31;3.57;;;3.27;;
2129;SDS011;1071;52.544;13.374;2023-07-13T11:08:03;2.90;;;2.70;;
2129;SDS011;1071;52.544;13.374;2023-07-13T11:10:46;3.80;;;2.87;;
2129;SDS011;1071;52.544;13.374;2023-07-13T11:16:32;4.03;;;2.63;;
2129;SDS011;1071;52.544;13.374;2023-07-13T11:22:02;3.30;;;3.00;;
2129;SDS011;1071;52.544;13.374;2023-07-13T11:24:48;3.00;;;2.70;;
2129;SDS011;1071;52.544;13.374;2023-07-13T11:27:33;6.93;;;3.47;;
2129;SDS011;1071;52.544;13.374;2023-07-13T11:30:17;3.27;;;2.97;;
2129;SDS011;1071;52.544;13.374;2023-07-13T11:33:11;2.63;;;2.43;;
2129;SDS011;1071;52.544;13.374;2023-07-13T11:35:44;4.07;;;2.73;;
2129;SDS011;1071;52.544;13.374;2023-07-13T11:38:28;4.17;;;2.90;;
2129;SDS011;1071;52.544;13.374;2023-07-13T11:41:00;4.30;;;2.97;;
2129;SDS011;1071;52.544;13.374;2023-07-13T11:43:30;2.50;;;2.33;;
2129;SDS011;1071;52.544;13.374;2023-07-13T11:46:00;3.00;;;2.70;;
2129;SDS011;1071;52.544;13.374;2023-07-13T11:48:39;2.90;;;2.60;;
2129;SDS011;1071;52.544;13.374;2023-07-13T11:51:11;3.70;;;2.40;;
2129;SDS011;1071;52.544;13.374;2023-07-13T11:53:45;4.30;;;3.20;;
2129;SDS011;1071;52.544;13.374;2023-07-13T11:56:15;5.33;;;2.90;;
2129;SDS011;1071;52.544;13.374;2023-07-13T11:58:42;3.60;;;3.10;;
2129;SDS011;1071;52.544;13.374;2023-07-13T12:01:15;5.03;;;4.50;;
2129;SDS011;1071;52.544;13.374;2023-07-13T12:03:45;2.97;;;2.53;;
2129;SDS011;1071;52.544;13.374;2023-07-13T12:06:23;2.47;;;1.87;;
2129;SDS011;1071;52.544;13.374;2023-07-13T12:08:55;2.73;;;2.10;;
2129;SDS011;1071;52.544;13.374;2023-07-13T12:11:24;6.60;;;5.70;;
2129;SDS011;1071;52.544;13.374;2023-07-13T12:13:51;5.43;;;3.70;;
2129;SDS011;1071;52.544;13.374;2023-07-13T12:16:23;3.30;;;3.00;;
2129;SDS011;1071;52.544;13.374;2023-07-13T12:18:54;3.10;;;2.73;;
2129;SDS011;1071;52.544;13.374;2023-07-13T12:21:27;4.40;;;2.37;;
2129;SDS011;1071;52.544;13.374;2023-07-13T12:23:58;3.10;;;2.60;;
2129;SDS011;1071;52.544;13.374;2023-07-13T12:26:27;4.67;;;2.63;;
2129;SDS011;1071;52.544;13.374;2023-07-13T12:28:55;2.90;;;2.10;;
2129;SDS011;1071;52.544;13.374;2023-07-13T12:31:30;3.03;;;2.33;;
2129;SDS011;1071;52.544;13.374;2023-07-13T12:34:01;5.43;;;2.63;;
2129;SDS011;1071;52.544;13.374;2023-07-13T12:36:32;4.00;;;2.97;;
2129;SDS011;1071;52.544;13.374;2023-07-13T12:39:03;3.97;;;2.67;;
2129;SDS011;1071;52.544;13.374;2023-07-13T12:41:38;3.23;;;2.33;;
2129;SDS011;1071;52.544;13.374;2023-07-13T12:44:09;3.43;;;2.40;;
2129;SDS011;1071;52.544;13.374;2023-07-13T12:46:38;3.57;;;2.60;;
2129;SDS011;1071;52.544;13.374;2023-07-13T12:49:07;2.07;;;1.87;;
2129;SDS011;1071;52.544;13.374;2023-07-13T12:51:36;3.00;;;2.80;;
2129;SDS011;1071;52.544;13.374;2023-07-13T12:54:12;3.10;;;2.23;;
2129;SDS011;1071;52.544;13.374;2023-07-13T12:56:43;7.90;;;2.57;;
2129;SDS011;1071;52.544;13.374;2023-07-13T12:59:15;10.47;;;2.57;;
2129;SDS011;1071;52.544;13.374;2023-07-13T13:01:45;3.57;;;2.33;;
2129;SDS011;1071;52.544;13.374;2023-07-13T13:04:14;3.30;;;2.40;;
2129;SDS011;1071;52.544;13.374;2023-07-13T13:06:47;3.93;;;3.07;;
2129;SDS011;1071;52.544;13.374;2023-07-13T13:09:15;2.80;;;2.60;;
2129;SDS011;1071;52.544;13.374;2023-07-13T13:11:45;4.90;;;3.20;;
2129;SDS011;1071;52.544;13.374;2023-07-13T13:14:12;4.17;;;3.77;;
2129;SDS011;1071;52.544;13.374;2023-07-13T13:16:45;4.63;;;2.40;;
2129;SDS011;1071;52.544;13.374;2023-07-13T13:19:16;4.10;;;2.67;;
2129;SDS011;1071;52.544;13.374;2023-07-13T13:21:48;4.80;;;1.90;;
2129;SDS011;1071;52.544;13.374;2023-07-13T13:24:18;4.77;;;2.40;;
2129;SDS011;1071;52.544;13.374;2023-07-13T13:26:47;2.47;;;2.27;;
2129;SDS011;1071;52.544;13.374;2023-07-13T13:29:15;3.30;;;2.30;;
2129;SDS011;1071;52.544;13.374;2023-07-13T13:31:43;5.53;;;4.20;;
2129;SDS011;1071;52.544;13.374;2023-07-13T13:34:11;3.30;;;3.00;;
2129;SDS011;1071;52.544;13.374;2023-07-13T13:36:41;3.47;;;3.17;;
2129;SDS011;1071;52.544;13.374;2023-07-13T13:39:20;5.03;;;3.30;;
2129;SDS011;1071;52.544;13.374;2023-07-13T13:41:48;2.93;;;2.60;;
2129;SDS011;1071;52.544;13.374;2023-07-13T13:44:17;2.97;;;2.53;;
2129;SDS011;1071;52.544;13.374;2023-07-13T13:46:45;5.03;;;2.40;;
2129;SDS011;1071;52.544;13.374;2023-07-13T13:49:16;5.00;;;2.60;;
2129;SDS011;1071;52.544;13.374;2023-07-13T13:51:45;2.27;;;2.00;;
2129;SDS011;1071;52.544;13.374;2023-07-13T13:54:12;6.77;;;3.63;;
2129;SDS011;1071;52.544;13.374;2023-07-13T13:56:43;3.50;;;2.80;;
2129;SDS011;1071;52.544;13.374;2023-07-13T13:59:11;3.93;;;3.57;;
2129;SDS011;1071;52.544;13.374;2023-07-13T14:01:40;5.63;;;3.30;;
2129;SDS011;1071;52.544;13.374;2023-07-13T14:04:11;3.57;;;2.87;;
2129;SDS011;1071;52.544;13.374;2023-07-13T14:06:42;3.97;;;3.03;;
2129;SDS011;1071;52.544;13.374;2023-07-13T14:09:10;5.40;;;3.90;;
2129;SDS011;1071;52.544;13.374;2023-07-13T14:11:40;3.53;;;2.70;;
2129;SDS011;1071;52.544;13.374;2023-07-13T14:14:09;3.63;;;2.70;;
2129;SDS011;1071;52.544;13.374;2023-07-13T14:16:41;4.07;;;2.40;;
2129;SDS011;1071;52.544;13.374;2023-07-13T14:19:10;3.70;;;2.83;;
2129;SDS011;1071;52.544;13.374;2023-07-13T14:21:39;3.10;;;2.50;;
2129;SDS011;1071;52.544;13.374;2023-07-13T14:24:06;5.83;;;5.33;;
2129;SDS011;1071;52.544;13.374;2023-07-13T14:26:36;3.37;;;3.07;;
2129;SDS011;1071;52.544;13.374;2023-07-13T14:31:42;3.30;;;2.40;;
2129;SDS011;1071;52.544;13.374;2023-07-13T14:34:10;2.27;;;2.07;;
2129;SDS011;1071;52.544;13.374;2023-07-13T14:36:39;2.73;;;1.93;;
2129;SDS011;1071;52.544;13.374;2023-07-13T14:39:11;2.40;;;2.20;;
2129;SDS011;1071;52.544;13.374;2023-07-13T14:41:41;2.70;;;2.00;;
2129;SDS011;1071;52.544;13.374;2023-07-13T14:44:11;2.63;;;2.00;;
2129;SDS011;1071;52.544;13.374;2023-07-13T14:46:40;2.30;;;2.10;;
2129;SDS011;1071;52.544;13.374;2023-07-13T14:49:10;3.60;;;2.70;;
2129;SDS011;1071;52.544;13.374;2023-07-13T14:51:43;3.37;;;2.17;;
2129;SDS011;1071;52.544;13.374;2023-07-13T14:54:09;3.07;;;2.40;;
2129;SDS011;1071;52.544;13.374;2023-07-13T14:56:37;2.50;;;2.10;;
2129;SDS011;1071;52.544;13.374;2023-07-13T14:59:04;2.93;;;1.93;;
2129;SDS011;1071;52.544;13.374;2023-07-13T15:01:33;2.43;;;1.97;;
2129;SDS011;1071;52.544;13.374;2023-07-13T15:04:01;4.27;;;3.37;;
2129;SDS011;1071;52.544;13.374;2023-07-13T15:06:29;5.20;;;3.60;;
2129;SDS011;1071;52.544;13.374;2023-07-13T15:08:57;4.27;;;3.87;;
2129;SDS011;1071;52.544;13.374;2023-07-13T15:11:25;5.27;;;4.77;;
2129;SDS011;1071;52.544;13.374;2023-07-13T15:13:52;3.07;;;2.73;;
2129;SDS011;1071;52.544;13.374;2023-07-13T15:16:21;3.53;;;2.30;;
2129;SDS011;1071;52.544;13.374;2023-07-13T15:18:51;3.37;;;3.07;;
2129;SDS011;1071;52.544;13.374;2023-07-13T15:21:19;4.73;;;4.33;;
2129;SDS011;1071;52.544;13.374;2023-07-13T15:23:48;4.10;;;3.50;;
2129;SDS011;1071;52.544;13.374;2023-07-13T15:26:15;9.97;;;8.97;;
2129;SDS011;1071;52.544;13.374;2023-07-13T15:28:43;7.33;;;6.30;;